Time,TemperatureF,DewpointF,PressureIn,WindDirection,WindDirectionDegrees,WindSpeedMPH,WindSpeedGustMPH,Humidity,HourlyPrecipIn,Conditions,Clouds,dailyrainin,SoftwareType,DateUTC
2013-07-23 00:00:00,75.8,72.7,29.79,WNW,292,0.0,18.0,90,0.00,,,0.00,Wunderground v.1.15,2013-07-23 04:00:00,
2013-07-23 00:05:00,75.6,72.8,29.79,WNW,291,0.0,18.0,91,0.00,,,0.00,Wunderground v.1.15,2013-07-23 04:05:00,
2013-07-23 00:10:00,75.4,72.6,29.78,WNW,292,0.0,18.0,91,0.00,,,0.00,Wunderground v.1.15,2013-07-23 04:10:00,
2013-07-23 00:15:00,75.3,72.8,29.78,WNW,292,0.0,18.0,92,0.00,,,0.00,Wunderground v.1.15,2013-07-23 04:15:00,
2013-07-23 00:20:00,75.1,72.9,29.78,WNW,292,0.0,18.0,93,0.00,,,0.00,Wunderground v.1.15,2013-07-23 04:20:00,
2013-07-23 00:25:00,74.9,72.7,29.78,WNW,292,0.0,18.0,93,0.00,,,0.00,Wunderground v.1.15,2013-07-23 04:25:00,
2013-07-23 00:35:00,74.6,72.4,29.77,WNW,291,0.0,18.0,93,0.00,,,0.00,Wunderground v.1.15,2013-07-23 04:35:00,
2013-07-23 00:40:00,74.4,72.6,29.77,WNW,292,0.0,18.0,94,0.00,,,0.00,Wunderground v.1.15,2013-07-23 04:40:00,
2013-07-23 00:45:00,74.3,72.5,29.77,WNW,292,0.0,18.0,94,0.00,,,0.00,Wunderground v.1.15,2013-07-23 04:45:00,
2013-07-23 00:50:00,74.2,72.7,29.76,WNW,292,0.0,18.0,95,0.00,,,0.00,Wunderground v.1.15,2013-07-23 04:50:00,
2013-07-23 00:55:00,74.2,72.7,29.76,WNW,292,0.0,18.0,95,0.00,,,0.00,Wunderground v.1.15,2013-07-23 04:55:00,
2013-07-23 01:05:00,74.1,72.6,29.75,WNW,292,0.0,18.0,95,0.00,,,0.00,Wunderground v.1.15,2013-07-23 05:05:00,
2013-07-23 01:10:00,74.1,72.6,29.75,WNW,292,0.0,18.0,95,0.00,,,0.00,Wunderground v.1.15,2013-07-23 05:10:00,
2013-07-23 01:15:00,74.0,72.5,29.75,WNW,291,0.0,18.0,95,0.00,,,0.00,Wunderground v.1.15,2013-07-23 05:15:00,
2013-07-23 01:20:00,74.1,72.9,29.75,WNW,292,0.0,18.0,96,0.00,,,0.00,Wunderground v.1.15,2013-07-23 05:20:00,
2013-07-23 01:25:00,74.1,72.9,29.75,WNW,291,0.0,18.0,96,0.00,,,0.00,Wunderground v.1.15,2013-07-23 05:25:00,
2013-07-23 01:35:00,74.1,72.9,29.74,WNW,292,0.0,18.0,96,0.00,,,0.00,Wunderground v.1.15,2013-07-23 05:35:00,
2013-07-23 01:40:00,74.0,72.8,29.74,WNW,291,0.0,18.0,96,0.00,,,0.00,Wunderground v.1.15,2013-07-23 05:40:00,
2013-07-23 01:45:00,74.0,72.8,29.74,WNW,291,0.0,18.0,96,0.00,,,0.00,Wunderground v.1.15,2013-07-23 05:45:00,
2013-07-23 01:55:00,74.0,72.8,29.74,WNW,291,0.0,18.0,96,0.00,,,0.00,Wunderground v.1.15,2013-07-23 05:55:00,
2013-07-23 02:00:00,74.0,72.8,29.74,WNW,291,0.0,18.0,96,0.00,,,0.00,Wunderground v.1.15,2013-07-23 06:00:00,
2013-07-23 02:05:00,74.0,72.8,29.74,WNW,292,0.0,18.0,96,0.00,,,0.00,Wunderground v.1.15,2013-07-23 06:05:00,
2013-07-23 02:10:00,74.0,72.8,29.74,WNW,292,0.0,18.0,96,0.00,,,0.00,Wunderground v.1.15,2013-07-23 06:10:00,
2013-07-23 02:20:00,74.0,72.8,29.74,WNW,291,0.0,18.0,96,0.00,,,0.00,Wunderground v.1.15,2013-07-23 06:20:00,
2013-07-23 02:25:00,74.1,72.9,29.74,WNW,291,0.0,18.0,96,0.00,,,0.00,Wunderground v.1.15,2013-07-23 06:25:00,
2013-07-23 02:30:00,74.0,72.8,29.74,WNW,292,0.0,18.0,96,0.00,,,0.00,Wunderground v.1.15,2013-07-23 06:30:00,
2013-07-23 02:35:00,74.1,72.9,29.74,WNW,292,0.0,18.0,96,0.00,,,0.00,Wunderground v.1.15,2013-07-23 06:35:00,
2013-07-23 02:40:00,74.0,72.8,29.74,WNW,291,0.0,18.0,96,0.00,,,0.00,Wunderground v.1.15,2013-07-23 06:40:00,
2013-07-23 02:50:00,74.2,73.3,29.73,WNW,292,0.0,18.0,97,0.00,,,0.00,Wunderground v.1.15,2013-07-23 06:50:00,
2013-07-23 02:55:00,74.2,73.3,29.73,WNW,291,0.0,18.0,97,0.00,,,0.00,Wunderground v.1.15,2013-07-23 06:55:00,
2013-07-23 03:00:00,74.1,73.2,29.73,WNW,291,0.0,18.0,97,0.00,,,0.00,Wunderground v.1.15,2013-07-23 07:00:00,
2013-07-23 03:10:00,73.7,73.1,29.73,WNW,292,0.0,18.0,98,0.00,,,0.00,Wunderground v.1.15,2013-07-23 07:10:00,
2013-07-23 03:15:00,73.6,73.0,29.73,WNW,292,0.0,18.0,98,0.00,,,0.00,Wunderground v.1.15,2013-07-23 07:15:00,
2013-07-23 03:20:00,73.5,72.9,29.73,WNW,291,0.0,18.0,98,0.00,,,0.00,Wunderground v.1.15,2013-07-23 07:20:00,
2013-07-23 03:25:00,73.4,73.1,29.73,WNW,292,0.0,18.0,99,0.00,,,0.00,Wunderground v.1.15,2013-07-23 07:25:00,
2013-07-23 03:30:00,73.3,73.0,29.73,WNW,292,0.0,18.0,99,0.00,,,0.00,Wunderground v.1.15,2013-07-23 07:30:00,
2013-07-23 03:40:00,73.2,72.9,29.72,WNW,292,0.0,18.0,99,0.00,,,0.00,Wunderground v.1.15,2013-07-23 07:40:00,
2013-07-23 03:45:00,73.1,72.8,29.72,WNW,291,0.0,18.0,99,0.00,,,0.00,Wunderground v.1.15,2013-07-23 07:45:00,
2013-07-23 03:50:00,73.1,72.8,29.72,WNW,292,0.0,18.0,99,0.00,,,0.00,Wunderground v.1.15,2013-07-23 07:50:00,
2013-07-23 03:55:00,73.1,72.8,29.72,WNW,292,0.0,18.0,99,0.00,,,0.00,Wunderground v.1.15,2013-07-23 07:55:00,
2013-07-23 04:00:00,73.1,72.8,29.72,WNW,291,0.0,18.0,99,0.00,,,0.00,Wunderground v.1.15,2013-07-23 08:00:00,
2013-07-23 04:10:00,73.1,73.1,29.72,WNW,292,0.0,18.0,100,0.00,,,0.00,Wunderground v.1.15,2013-07-23 08:10:00,
2013-07-23 04:15:00,73.2,73.2,29.72,WNW,292,0.0,18.0,100,0.00,,,0.00,Wunderground v.1.15,2013-07-23 08:15:00,
2013-07-23 04:20:00,73.3,73.3,29.71,WNW,292,0.0,18.0,100,0.00,,,0.00,Wunderground v.1.15,2013-07-23 08:20:00,
2013-07-23 04:25:00,73.3,73.3,29.72,WNW,291,0.0,18.0,100,0.00,,,0.00,Wunderground v.1.15,2013-07-23 08:25:00,
2013-07-23 04:30:00,73.4,73.1,29.72,WNW,292,0.0,18.0,99,0.00,,,0.00,Wunderground v.1.15,2013-07-23 08:30:00,
2013-07-23 04:40:00,73.5,73.2,29.72,WNW,292,0.0,18.0,99,0.00,,,0.00,Wunderground v.1.15,2013-07-23 08:40:00,
2013-07-23 04:45:00,73.6,73.3,29.72,WNW,292,0.0,18.0,99,0.00,,,0.00,Wunderground v.1.15,2013-07-23 08:45:00,
2013-07-23 04:50:00,73.7,73.4,29.72,WNW,292,0.0,18.0,99,0.00,,,0.00,Wunderground v.1.15,2013-07-23 08:50:00,
2013-07-23 04:55:00,73.7,73.4,29.72,WNW,292,0.0,18.0,99,0.00,,,0.00,Wunderground v.1.15,2013-07-23 08:55:00,
2013-07-23 05:00:00,73.8,73.2,29.71,WNW,292,0.0,18.0,98,0.00,,,0.00,Wunderground v.1.15,2013-07-23 09:00:00,
2013-07-23 05:10:00,73.9,73.3,29.71,WNW,291,0.0,18.0,98,0.00,,,0.00,Wunderground v.1.15,2013-07-23 09:10:00,
2013-07-23 05:15:00,74.1,73.5,29.72,WNW,291,0.0,18.0,98,0.00,,,0.00,Wunderground v.1.15,2013-07-23 09:15:00,
2013-07-23 05:20:00,74.1,73.5,29.71,WNW,292,0.0,18.0,98,0.00,,,0.00,Wunderground v.1.15,2013-07-23 09:20:00,
2013-07-23 05:30:00,74.2,73.6,29.71,WNW,292,0.0,18.0,98,0.00,,,0.00,Wunderground v.1.15,2013-07-23 09:30:00,
2013-07-23 05:35:00,74.2,73.3,29.71,WNW,291,0.0,18.0,97,0.00,,,0.00,Wunderground v.1.15,2013-07-23 09:35:00,
2013-07-23 05:40:00,74.3,73.4,29.71,WNW,291,0.0,18.0,97,0.00,,,0.00,Wunderground v.1.15,2013-07-23 09:40:00,
2013-07-23 05:45:00,74.3,73.4,29.71,WNW,292,0.0,18.0,97,0.00,,,0.00,Wunderground v.1.15,2013-07-23 09:45:00,
2013-07-23 05:50:00,74.4,73.8,29.71,WNW,291,0.0,18.0,98,0.00,,,0.00,Wunderground v.1.15,2013-07-23 09:50:00,
2013-07-23 06:00:00,74.4,73.5,29.71,WNW,292,0.0,18.0,97,0.00,,,0.00,Wunderground v.1.15,2013-07-23 10:00:00,
2013-07-23 06:05:00,74.3,73.4,29.71,WNW,292,0.0,18.0,97,0.00,,,0.00,Wunderground v.1.15,2013-07-23 10:05:00,
2013-07-23 06:10:00,74.2,73.3,29.71,WNW,292,1.0,1.0,97,0.00,,,0.00,Wunderground v.1.15,2013-07-23 10:10:00,
2013-07-23 06:15:00,74.2,73.3,29.71,WNW,292,0.0,18.0,97,0.00,,,0.00,Wunderground v.1.15,2013-07-23 10:15:00,
2013-07-23 06:25:00,74.2,73.3,29.71,WNW,292,0.0,18.0,97,0.00,,,0.00,Wunderground v.1.15,2013-07-23 10:25:00,
2013-07-23 06:30:00,74.1,73.2,29.72,WNW,292,0.0,18.0,97,0.00,,,0.00,Wunderground v.1.15,2013-07-23 10:30:00,
2013-07-23 06:35:00,74.1,73.2,29.72,WNW,292,0.0,18.0,97,0.00,,,0.00,Wunderground v.1.15,2013-07-23 10:35:00,
2013-07-23 06:40:00,74.1,73.2,29.72,WNW,292,0.0,18.0,97,0.00,,,0.00,Wunderground v.1.15,2013-07-23 10:40:00,
2013-07-23 06:45:00,74.0,73.1,29.72,WNW,291,0.0,18.0,97,0.00,,,0.00,Wunderground v.1.15,2013-07-23 10:45:00,
2013-07-23 06:55:00,74.0,73.1,29.72,WNW,292,0.0,18.0,97,0.00,,,0.00,Wunderground v.1.15,2013-07-23 10:55:00,
2013-07-23 07:00:00,74.0,73.1,29.72,WNW,291,0.0,18.0,97,0.00,,,0.00,Wunderground v.1.15,2013-07-23 11:00:00,
2013-07-23 07:05:00,74.1,73.2,29.73,WNW,292,0.0,18.0,97,0.00,,,0.00,Wunderground v.1.15,2013-07-23 11:05:00,
2013-07-23 07:10:00,74.1,73.2,29.72,WNW,292,0.0,18.0,97,0.00,,,0.00,Wunderground v.1.15,2013-07-23 11:10:00,
2013-07-23 07:20:00,74.1,73.2,29.73,WNW,292,0.0,18.0,97,0.00,,,0.00,Wunderground v.1.15,2013-07-23 11:20:00,
2013-07-23 07:25:00,74.2,73.3,29.73,WNW,292,0.0,18.0,97,0.00,,,0.00,Wunderground v.1.15,2013-07-23 11:25:00,
2013-07-23 07:30:00,74.2,73.3,29.73,WNW,291,0.0,18.0,97,0.00,,,0.00,Wunderground v.1.15,2013-07-23 11:30:00,
2013-07-23 07:35:00,74.3,73.4,29.73,WNW,292,0.0,18.0,97,0.00,,,0.00,Wunderground v.1.15,2013-07-23 11:35:00,
2013-07-23 07:45:00,74.5,73.3,29.73,WNW,292,0.0,18.0,96,0.00,,,0.00,Wunderground v.1.15,2013-07-23 11:45:00,
2013-07-23 07:50:00,74.6,73.4,29.73,WNW,292,0.0,18.0,96,0.00,,,0.00,Wunderground v.1.15,2013-07-23 11:50:00,
2013-07-23 07:55:00,74.5,73.3,29.73,WNW,291,0.0,18.0,96,0.00,,,0.00,Wunderground v.1.15,2013-07-23 11:55:00,
2013-07-23 08:00:00,74.4,73.2,29.73,WNW,292,1.0,18.0,96,0.00,,,0.00,Wunderground v.1.15,2013-07-23 12:00:00,
2013-07-23 08:05:00,74.4,73.2,29.73,WNW,292,0.0,18.0,96,0.00,,,0.00,Wunderground v.1.15,2013-07-23 12:05:00,
2013-07-23 08:15:00,74.4,73.2,29.72,WNW,292,1.0,18.0,96,0.00,,,0.00,Wunderground v.1.15,2013-07-23 12:15:00,
2013-07-23 08:20:00,74.5,73.3,29.73,WNW,292,0.0,18.0,96,0.00,,,0.00,Wunderground v.1.15,2013-07-23 12:20:00,
2013-07-23 08:25:00,74.5,73.3,29.73,WNW,296,0.0,18.0,96,0.00,,,0.00,Wunderground v.1.15,2013-07-23 12:25:00,
2013-07-23 08:30:00,74.8,73.3,29.73,WNW,296,1.0,1.0,95,0.00,,,0.00,Wunderground v.1.15,2013-07-23 12:30:00,
2013-07-23 08:35:00,75.1,73.6,29.73,West,279,2.0,2.0,95,0.00,,,0.00,Wunderground v.1.15,2013-07-23 12:35:00,
2013-07-23 08:45:00,75.4,73.6,29.73,NW,304,2.0,18.0,94,0.00,,,0.00,Wunderground v.1.15,2013-07-23 12:45:00,
2013-07-23 08:50:00,75.6,73.4,29.73,WNW,286,2.0,2.0,93,0.00,,,0.00,Wunderground v.1.15,2013-07-23 12:50:00,
2013-07-23 08:55:00,75.8,73.6,29.73,WNW,284,2.0,5.0,93,0.00,,,0.00,Wunderground v.1.15,2013-07-23 12:55:00,
2013-07-23 09:00:00,76.0,73.5,29.73,West,280,2.0,2.0,92,0.00,,,0.00,Wunderground v.1.15,2013-07-23 13:00:00,
2013-07-23 09:05:00,76.2,74.0,29.72,West,280,2.0,18.0,93,0.00,,,0.00,Wunderground v.1.15,2013-07-23 13:05:00,
2013-07-23 09:15:00,76.9,74.1,29.72,WNW,299,1.0,18.0,91,0.00,,,0.00,Wunderground v.1.15,2013-07-23 13:15:00,
2013-07-23 09:20:00,77.2,74.4,29.72,WNW,299,1.0,18.0,91,0.00,,,0.00,Wunderground v.1.15,2013-07-23 13:20:00,
2013-07-23 09:25:00,77.4,74.2,29.72,WSW,257,1.0,18.0,90,0.00,,,0.00,Wunderground v.1.15,2013-07-23 13:25:00,
2013-07-23 09:30:00,77.6,74.1,29.72,WNW,287,1.0,1.0,89,0.00,,,0.00,Wunderground v.1.15,2013-07-23 13:30:00,
2013-07-23 09:40:00,77.8,73.6,29.72,WNW,300,1.0,1.0,87,0.00,,,0.00,Wunderground v.1.15,2013-07-23 13:40:00,
2013-07-23 09:45:00,77.7,73.9,29.72,WNW,300,1.0,18.0,88,0.00,,,0.00,Wunderground v.1.15,2013-07-23 13:45:00,
2013-07-23 09:50:00,77.9,74.1,29.72,West,273,2.0,18.0,88,0.00,,,0.00,Wunderground v.1.15,2013-07-23 13:50:00,
2013-07-23 09:55:00,78.5,74.6,29.72,West,275,1.0,18.0,88,0.00,,,0.00,Wunderground v.1.15,2013-07-23 13:55:00,
2013-07-23 10:05:00,79.5,75.3,29.72,WNW,298,1.0,3.0,87,0.00,,,0.00,Wunderground v.1.15,2013-07-23 14:05:00,
2013-07-23 10:10:00,79.5,74.6,29.72,WNW,298,2.0,18.0,85,0.00,,,0.00,Wunderground v.1.15,2013-07-23 14:10:00,
2013-07-23 10:15:00,78.8,74.3,29.72,WNW,291,3.0,18.0,86,0.00,,,0.00,Wunderground v.1.15,2013-07-23 14:15:00,
2013-07-23 10:20:00,78.8,74.3,29.72,West,269,2.0,2.0,86,0.00,,,0.00,Wunderground v.1.15,2013-07-23 14:20:00,
2013-07-23 10:25:00,79.1,74.5,29.72,WNW,303,2.0,18.0,86,0.00,,,0.00,Wunderground v.1.15,2013-07-23 14:25:00,
2013-07-23 10:35:00,79.1,74.2,29.71,NW,310,3.0,18.0,85,0.00,,,0.00,Wunderground v.1.15,2013-07-23 14:35:00,
2013-07-23 10:40:00,79.5,74.2,29.71,WNW,294,3.0,18.0,84,0.00,,,0.00,Wunderground v.1.15,2013-07-23 14:40:00,
2013-07-23 10:45:00,80.1,74.5,29.71,WNW,292,3.0,18.0,83,0.00,,,0.00,Wunderground v.1.15,2013-07-23 14:45:00,
2013-07-23 10:50:00,80.6,74.2,29.71,NW,304,2.0,2.0,81,0.00,,,0.00,Wunderground v.1.15,2013-07-23 14:50:00,
2013-07-23 10:55:00,81.1,74.7,29.71,NW,305,1.0,18.0,81,0.00,,,0.00,Wunderground v.1.15,2013-07-23 14:55:00,
2013-07-23 11:05:00,82.1,74.6,29.71,WNW,292,2.0,2.0,78,0.00,,,0.00,Wunderground v.1.15,2013-07-23 15:05:00,
2013-07-23 11:10:00,81.8,74.3,29.71,NW,307,3.0,3.0,78,0.00,,,0.00,Wunderground v.1.15,2013-07-23 15:10:00,
2013-07-23 11:15:00,82.0,74.5,29.71,WNW,300,2.0,18.0,78,0.00,,,0.00,Wunderground v.1.15,2013-07-23 15:15:00,
2013-07-23 11:20:00,81.9,74.4,29.71,SW,234,2.0,2.0,78,0.00,,,0.00,Wunderground v.1.15,2013-07-23 15:20:00,
2013-07-23 11:30:00,81.8,75.0,29.71,SW,236,2.0,2.0,80,0.00,,,0.00,Wunderground v.1.15,2013-07-23 15:30:00,
2013-07-23 11:35:00,82.5,73.8,29.71,NW,310,2.0,4.0,75,0.00,,,0.00,Wunderground v.1.15,2013-07-23 15:35:00,
2013-07-23 11:40:00,82.6,73.9,29.71,WNW,296,2.0,18.0,75,0.00,,,0.00,Wunderground v.1.15,2013-07-23 15:40:00,
2013-07-23 11:45:00,82.4,73.7,29.71,WNW,298,3.0,18.0,75,0.00,,,0.00,Wunderground v.1.15,2013-07-23 15:45:00,
2013-07-23 11:50:00,83.2,74.8,29.71,NW,307,3.0,3.0,76,0.00,,,0.00,Wunderground v.1.15,2013-07-23 15:50:00,
2013-07-23 12:00:00,83.3,73.7,29.71,NW,309,3.0,18.0,73,0.00,,,0.00,Wunderground v.1.15,2013-07-23 16:00:00,
2013-07-23 12:05:00,83.3,74.5,29.71,WNW,288,3.0,18.0,75,0.00,,,0.00,Wunderground v.1.15,2013-07-23 16:05:00,
2013-07-23 12:10:00,83.0,74.3,29.71,WNW,300,3.0,3.0,75,0.00,,,0.00,Wunderground v.1.15,2013-07-23 16:10:00,
2013-07-23 12:15:00,82.6,74.3,29.72,WNW,300,4.0,4.0,76,0.00,,,0.00,Wunderground v.1.15,2013-07-23 16:15:00,
2013-07-23 12:25:00,83.9,74.3,29.71,WNW,303,3.0,18.0,73,0.00,,,0.00,Wunderground v.1.15,2013-07-23 16:25:00,
2013-07-23 12:30:00,83.9,75.1,29.71,SW,215,3.0,3.0,75,0.00,,,0.00,Wunderground v.1.15,2013-07-23 16:30:00,
2013-07-23 12:35:00,85.0,75.4,29.71,WNW,300,2.0,18.0,73,0.00,,,0.00,Wunderground v.1.15,2013-07-23 16:35:00,
2013-07-23 12:40:00,84.4,73.5,29.71,NW,311,3.0,3.0,70,0.00,,,0.00,Wunderground v.1.15,2013-07-23 16:40:00,
2013-07-23 12:45:00,84.7,74.7,29.71,WSW,250,3.0,18.0,72,0.00,,,0.00,Wunderground v.1.15,2013-07-23 16:45:00,
2013-07-23 12:55:00,84.9,73.6,29.71,NW,304,2.0,18.0,69,0.00,,,0.00,Wunderground v.1.15,2013-07-23 16:55:00,
2013-07-23 13:00:00,84.9,73.6,29.70,West,269,4.0,18.0,69,0.00,,,0.00,Wunderground v.1.15,2013-07-23 17:00:00,
2013-07-23 13:05:00,85.5,73.7,29.70,WSW,242,4.0,18.0,68,0.00,,,0.00,Wunderground v.1.15,2013-07-23 17:05:00,
2013-07-23 13:10:00,85.6,74.3,29.70,NW,309,3.0,3.0,69,0.00,,,0.00,Wunderground v.1.15,2013-07-23 17:10:00,
2013-07-23 13:15:00,85.7,73.9,29.70,West,265,3.0,5.0,68,0.00,,,0.00,Wunderground v.1.15,2013-07-23 17:15:00,
2013-07-23 13:25:00,85.3,74.0,29.69,WSW,238,3.0,18.0,69,0.00,,,0.00,Wunderground v.1.15,2013-07-23 17:25:00,
2013-07-23 13:30:00,85.6,74.3,29.69,WNW,290,2.0,2.0,69,0.00,,,0.00,Wunderground v.1.15,2013-07-23 17:30:00,
2013-07-23 13:35:00,85.2,73.9,29.70,WNW,292,4.0,4.0,69,0.00,,,0.00,Wunderground v.1.15,2013-07-23 17:35:00,
2013-07-23 13:40:00,85.0,73.7,29.70,West,267,5.0,5.0,69,0.00,,,0.00,Wunderground v.1.15,2013-07-23 17:40:00,
2013-07-23 13:55:00,84.5,73.6,29.70,West,271,5.0,18.0,70,0.00,,,0.00,Wunderground v.1.15,2013-07-23 17:55:00,
2013-07-23 14:00:00,84.2,73.3,29.70,WNW,301,4.0,4.0,70,0.00,,,0.00,Wunderground v.1.15,2013-07-23 18:00:00,
2013-07-23 14:05:00,83.6,72.8,29.70,WNW,284,3.0,18.0,70,0.00,,,0.00,Wunderground v.1.15,2013-07-23 18:05:00,
2013-07-23 14:15:00,83.2,72.8,29.70,WSW,256,4.0,18.0,71,0.00,,,0.00,Wunderground v.1.15,2013-07-23 18:15:00,
2013-07-23 14:20:00,83.8,73.4,29.70,West,275,3.0,18.0,71,0.00,,,0.00,Wunderground v.1.15,2013-07-23 18:20:00,
2013-07-23 14:30:00,83.8,73.4,29.70,WNW,303,4.0,18.0,71,0.00,,,0.00,Wunderground v.1.15,2013-07-23 18:30:00,
2013-07-23 14:35:00,83.3,73.3,29.70,WNW,300,4.0,18.0,72,0.00,,,0.00,Wunderground v.1.15,2013-07-23 18:35:00,
2013-07-23 14:50:00,83.4,73.8,29.70,West,277,3.0,3.0,73,0.00,,,0.00,Wunderground v.1.15,2013-07-23 18:50:00,
2013-07-23 15:00:00,83.2,74.4,29.70,WNW,302,1.0,1.0,75,0.00,,,0.00,Wunderground v.1.15,2013-07-23 19:00:00,
2013-07-23 15:10:00,82.8,73.7,29.69,WNW,295,2.0,2.0,74,0.00,,,0.00,Wunderground v.1.15,2013-07-23 19:10:00,
2013-07-23 15:15:00,82.9,73.8,29.70,NW,310,3.0,9.0,74,0.00,,,0.00,Wunderground v.1.15,2013-07-23 19:15:00,
2013-07-23 15:20:00,82.9,73.4,29.70,NW,321,3.0,18.0,73,0.00,,,0.00,Wunderground v.1.15,2013-07-23 19:20:00,
2013-07-23 15:25:00,83.7,72.4,29.69,WNW,294,4.0,18.0,69,0.00,,,0.00,Wunderground v.1.15,2013-07-23 19:25:00,
2013-07-23 15:35:00,84.5,72.8,29.69,SW,234,6.0,18.0,68,0.00,,,0.00,Wunderground v.1.15,2013-07-23 19:35:00,
2013-07-23 15:45:00,84.4,73.5,29.68,NW,306,4.0,18.0,70,0.00,,,0.00,Wunderground v.1.15,2013-07-23 19:45:00,
2013-07-23 16:00:00,85.9,73.7,29.68,West,262,3.0,3.0,67,0.00,,,0.00,Wunderground v.1.15,2013-07-23 20:00:00,
2013-07-23 16:05:00,86.0,74.6,29.68,WNW,296,3.0,18.0,69,0.00,,,0.00,Wunderground v.1.15,2013-07-23 20:05:00,
2013-07-23 16:15:00,85.3,72.6,29.68,West,275,5.0,18.0,66,0.00,,,0.00,Wunderground v.1.15,2013-07-23 20:15:00,
2013-07-23 16:25:00,84.8,73.1,29.68,WNW,300,5.0,18.0,68,0.00,,,0.00,Wunderground v.1.15,2013-07-23 20:25:00,
2013-07-23 16:30:00,84.5,72.3,29.68,West,275,5.0,18.0,67,0.00,,,0.00,Wunderground v.1.15,2013-07-23 20:30:00,
2013-07-23 16:35:00,85.0,72.8,29.67,NW,313,5.0,18.0,67,0.00,,,0.00,Wunderground v.1.15,2013-07-23 20:35:00,
2013-07-23 16:40:00,85.3,72.6,29.67,WNW,298,5.0,5.0,66,0.00,,,0.00,Wunderground v.1.15,2013-07-23 20:40:00,
2013-07-23 16:45:00,84.8,72.2,29.67,WNW,288,7.0,7.0,66,0.00,,,0.00,Wunderground v.1.15,2013-07-23 20:45:00,
2013-07-23 17:00:00,85.4,73.6,29.67,WNW,295,4.0,4.0,68,0.00,,,0.00,Wunderground v.1.15,2013-07-23 21:00:00,
2013-07-23 17:05:00,85.9,73.2,29.67,WNW,290,2.0,6.0,66,0.00,,,0.00,Wunderground v.1.15,2013-07-23 21:05:00,
2013-07-23 17:10:00,86.1,73.4,29.67,WNW,288,2.0,2.0,66,0.00,,,0.00,Wunderground v.1.15,2013-07-23 21:10:00,
2013-07-23 17:20:00,86.7,73.1,29.67,NW,311,3.0,18.0,64,0.00,,,0.00,Wunderground v.1.15,2013-07-23 21:20:00,
2013-07-23 17:25:00,86.4,72.3,29.67,NNW,328,4.0,18.0,63,0.00,,,0.00,Wunderground v.1.15,2013-07-23 21:25:00,
2013-07-23 17:30:00,85.7,72.1,29.66,WNW,300,5.0,5.0,64,0.00,,,0.00,Wunderground v.1.15,2013-07-23 21:30:00,
2013-07-23 17:40:00,85.4,72.3,29.66,NW,308,5.0,18.0,65,0.00,,,0.00,Wunderground v.1.15,2013-07-23 21:40:00,
2013-07-23 17:55:00,86.2,73.0,29.66,WNW,289,2.0,18.0,65,0.00,,,0.00,Wunderground v.1.15,2013-07-23 21:55:00,
2013-07-23 18:05:00,86.8,74.1,29.65,WNW,303,1.0,18.0,66,0.00,,,0.00,Wunderground v.1.15,2013-07-23 22:05:00,
2013-07-23 18:10:00,86.9,73.3,29.65,WNW,295,1.0,18.0,64,0.00,,,0.00,Wunderground v.1.15,2013-07-23 22:10:00,
2013-07-23 18:20:00,86.5,72.9,29.66,NW,323,3.0,18.0,64,0.00,,,0.00,Wunderground v.1.15,2013-07-23 22:20:00,
2013-07-23 18:25:00,85.7,71.7,29.66,WNW,300,3.0,18.0,63,0.00,,,0.00,Wunderground v.1.15,2013-07-23 22:25:00,
2013-07-23 18:30:00,85.4,72.3,29.66,WNW,287,4.0,4.0,65,0.00,,,0.00,Wunderground v.1.15,2013-07-23 22:30:00,
2013-07-23 18:40:00,85.3,71.7,29.66,NW,311,3.0,18.0,64,0.00,,,0.00,Wunderground v.1.15,2013-07-23 22:40:00,
2013-07-23 18:45:00,85.2,72.1,29.67,WNW,293,2.0,18.0,65,0.00,,,0.00,Wunderground v.1.15,2013-07-23 22:45:00,
2013-07-23 18:55:00,85.0,71.9,29.67,WNW,284,3.0,3.0,65,0.00,,,0.00,Wunderground v.1.15,2013-07-23 22:55:00,
2013-07-23 19:00:00,84.7,71.6,29.67,NW,310,3.0,3.0,65,0.00,,,0.00,Wunderground v.1.15,2013-07-23 23:00:00,
2013-07-23 19:15:00,84.3,71.7,29.67,NW,321,3.0,18.0,66,0.00,,,0.00,Wunderground v.1.15,2013-07-23 23:15:00,
2013-07-23 19:30:00,83.6,71.9,29.68,WNW,291,1.0,1.0,68,0.00,,,0.00,Wunderground v.1.15,2013-07-23 23:30:00,
2013-07-23 19:35:00,83.4,72.2,29.68,West,279,1.0,18.0,69,0.00,,,0.00,Wunderground v.1.15,2013-07-23 23:35:00,
2013-07-23 19:45:00,83.0,71.8,29.68,WNW,290,1.0,18.0,69,0.00,,,0.00,Wunderground v.1.15,2013-07-23 23:45:00,
2013-07-23 19:50:00,82.9,71.7,29.68,WNW,291,1.0,1.0,69,0.00,,,0.00,Wunderground v.1.15,2013-07-23 23:50:00,
2013-07-23 19:55:00,82.7,71.9,29.68,WNW,291,0.0,18.0,70,0.00,,,0.00,Wunderground v.1.15,2013-07-23 23:55:00,
2013-07-23 20:05:00,82.3,71.5,29.68,WNW,291,0.0,18.0,70,0.00,,,0.00,Wunderground v.1.15,2013-07-24 00:05:00,
2013-07-23 20:10:00,82.1,71.3,29.68,WNW,291,0.0,18.0,70,0.00,,,0.00,Wunderground v.1.15,2013-07-24 00:10:00,
2013-07-23 20:15:00,81.9,71.6,29.68,WNW,291,0.0,18.0,71,0.00,,,0.00,Wunderground v.1.15,2013-07-24 00:15:00,
2013-07-23 20:25:00,81.5,71.6,29.69,WNW,291,0.0,18.0,72,0.00,,,0.00,Wunderground v.1.15,2013-07-24 00:25:00,
2013-07-23 20:35:00,81.1,71.6,29.69,WNW,291,0.0,18.0,73,0.00,,,0.00,Wunderground v.1.15,2013-07-24 00:35:00,
2013-07-23 20:40:00,81.0,71.5,29.69,WNW,291,0.0,18.0,73,0.00,,,0.00,Wunderground v.1.15,2013-07-24 00:40:00,
2013-07-23 20:45:00,80.9,71.8,29.69,WNW,291,0.0,18.0,74,0.00,,,0.00,Wunderground v.1.15,2013-07-24 00:45:00,
2013-07-23 20:55:00,80.4,71.7,29.70,WNW,291,0.0,18.0,75,0.00,,,0.00,Wunderground v.1.15,2013-07-24 00:55:00,
2013-07-23 21:00:00,80.2,71.6,29.70,WNW,291,0.0,18.0,75,0.00,,,0.00,Wunderground v.1.15,2013-07-24 01:00:00,
2013-07-23 21:05:00,80.0,71.4,29.69,WNW,291,0.0,18.0,75,0.00,,,0.00,Wunderground v.1.15,2013-07-24 01:05:00,
2013-07-23 21:10:00,79.8,71.2,29.69,WNW,291,0.0,18.0,75,0.00,,,0.00,Wunderground v.1.15,2013-07-24 01:10:00,
2013-07-23 21:15:00,79.6,71.8,29.69,WNW,291,0.0,18.0,77,0.00,,,0.00,Wunderground v.1.15,2013-07-24 01:15:00,
2013-07-23 21:25:00,79.3,71.5,29.69,WNW,291,0.0,18.0,77,0.00,,,0.00,Wunderground v.1.15,2013-07-24 01:25:00,
2013-07-23 21:30:00,79.2,71.4,29.70,WNW,291,0.0,18.0,77,0.00,,,0.00,Wunderground v.1.15,2013-07-24 01:30:00,
2013-07-23 21:35:00,79.1,71.3,29.70,WNW,291,0.0,18.0,77,0.00,,,0.00,Wunderground v.1.15,2013-07-24 01:35:00,
2013-07-23 21:40:00,79.1,71.3,29.70,WNW,291,0.0,18.0,77,0.00,,,0.00,Wunderground v.1.15,2013-07-24 01:40:00,
2013-07-23 21:45:00,79.0,71.2,29.70,WNW,291,0.0,18.0,77,0.00,,,0.00,Wunderground v.1.15,2013-07-24 01:45:00,
2013-07-23 21:55:00,78.9,71.1,29.70,WNW,291,0.0,18.0,77,0.00,,,0.00,Wunderground v.1.15,2013-07-24 01:55:00,
2013-07-23 22:00:00,78.9,71.1,29.70,WNW,291,0.0,18.0,77,0.00,,,0.00,Wunderground v.1.15,2013-07-24 02:00:00,
2013-07-23 22:10:00,79.0,71.2,29.70,WNW,291,0.0,18.0,77,0.00,,,0.00,Wunderground v.1.15,2013-07-24 02:10:00,
2013-07-23 22:20:00,79.1,71.3,29.69,WNW,291,0.0,18.0,77,0.00,,,0.00,Wunderground v.1.15,2013-07-24 02:20:00,
2013-07-23 22:25:00,79.0,71.6,29.69,WNW,291,0.0,18.0,78,0.00,,,0.00,Wunderground v.1.15,2013-07-24 02:25:00,
2013-07-23 22:30:00,78.9,71.8,29.70,WNW,291,0.0,18.0,79,0.00,,,0.00,Wunderground v.1.15,2013-07-24 02:30:00,
2013-07-23 22:35:00,78.7,72.0,29.70,WNW,291,0.0,18.0,80,0.00,,,0.00,Wunderground v.1.15,2013-07-24 02:35:00,
2013-07-23 22:50:00,77.4,71.1,29.70,WNW,291,0.0,18.0,81,0.00,,,0.00,Wunderground v.1.15,2013-07-24 02:50:00,
2013-07-23 22:55:00,77.2,71.6,29.71,WNW,291,0.0,18.0,83,0.00,,,0.00,Wunderground v.1.15,2013-07-24 02:55:00,
2013-07-23 23:00:00,77.0,71.4,29.71,WNW,291,0.0,18.0,83,0.00,,,0.00,Wunderground v.1.15,2013-07-24 03:00:00,
2013-07-23 23:05:00,77.0,71.4,29.70,WNW,291,0.0,18.0,83,0.00,,,0.00,Wunderground v.1.15,2013-07-24 03:05:00,
2013-07-23 23:15:00,77.3,71.0,29.71,WNW,291,0.0,18.0,81,0.00,,,0.00,Wunderground v.1.15,2013-07-24 03:15:00,
2013-07-23 23:20:00,77.4,71.5,29.71,WNW,291,0.0,18.0,82,0.00,,,0.00,Wunderground v.1.15,2013-07-24 03:20:00,
2013-07-23 23:25:00,77.5,71.6,29.72,WNW,291,0.0,18.0,82,0.00,,,0.00,Wunderground v.1.15,2013-07-24 03:25:00,
2013-07-23 23:30:00,77.5,71.9,29.72,WNW,291,0.0,18.0,83,0.00,,,0.00,Wunderground v.1.15,2013-07-24 03:30:00,
2013-07-23 23:35:00,77.2,71.6,29.72,WNW,291,0.0,18.0,83,0.00,,,0.00,Wunderground v.1.15,2013-07-24 03:35:00,
2013-07-23 23:45:00,77.0,72.1,29.72,WNW,291,0.0,18.0,85,0.00,,,0.00,Wunderground v.1.15,2013-07-24 03:45:00,
2013-07-23 23:50:00,76.7,71.8,29.72,WNW,291,0.0,18.0,85,0.00,,,0.00,Wunderground v.1.15,2013-07-24 03:50:00,